Time;durP1;ratioP1;P1;durP2;ratioP2;P2;SDS_P1;SDS_P2;PMS_P1;PMS_P2;Temp;Humidity;BMP_temperature;BMP_pressure;BME280_temperature;BME280_humidity;BME280_pressure;Samples;Min_cycle;Max_cycle;Signal;HPM_P1;HPM_P2
2023/10/23 00:01:09;;;;;;;25.90;24.20;;;;;;;;;;5054357;28;20453;-79
2023/10/23 00:03:36;;;;;;;25.53;24.00;;;;;;;;;;5055236;28;20428;-79
2023/10/23 00:06:03;;;;;;;25.53;24.03;;;;;;;;;;5054160;28;20448;-78
2023/10/23 00:08:30;;;;;;;26.87;25.00;;;;;;;;;;5054182;28;20449;-80
2023/10/23 00:10:59;;;;;;;25.50;23.83;;;;;;;;;;5053324;28;20455;-79
2023/10/23 00:13:26;;;;;;;26.57;24.30;;;;;;;;;;5054418;28;20562;-78
2023/10/23 00:15:53;;;;;;;25.53;23.93;;;;;;;;;;5053936;28;20452;-78
2023/10/23 00:18:20;;;;;;;26.23;24.00;;;;;;;;;;5054354;28;20974;-80
2023/10/23 00:20:48;;;;;;;25.60;23.90;;;;;;;;;;5054853;28;20467;-78
2023/10/23 00:23:15;;;;;;;26.57;24.80;;;;;;;;;;5057100;28;20426;-78
2023/10/23 00:25:42;;;;;;;25.07;23.17;;;;;;;;;;5055526;28;20929;-80
2023/10/23 00:28:10;;;;;;;25.57;23.80;;;;;;;;;;5054677;28;20826;-79
2023/10/23 00:30:37;;;;;;;25.53;23.93;;;;;;;;;;5054079;28;20441;-80
2023/10/23 00:33:04;;;;;;;24.90;23.33;;;;;;;;;;5054660;28;20421;-79
2023/10/23 00:35:32;;;;;;;26.13;24.50;;;;;;;;;;5053420;28;20785;-80
2023/10/23 00:37:59;;;;;;;26.20;24.20;;;;;;;;;;5054101;28;20445;-80
2023/10/23 00:40:26;;;;;;;26.07;23.90;;;;;;;;;;5052848;28;20484;-79
2023/10/23 00:42:53;;;;;;;24.43;22.93;;;;;;;;;;5059501;28;20460;-79
2023/10/23 00:45:21;;;;;;;25.57;23.90;;;;;;;;;;5053371;28;20417;-79
2023/10/23 00:47:49;;;;;;;24.50;22.83;;;;;;;;;;5053936;28;20448;-78
2023/10/23 00:50:16;;;;;;;24.60;22.87;;;;;;;;;;5054586;28;20417;-79
2023/10/23 00:52:44;;;;;;;25.60;23.80;;;;;;;;;;5054065;28;20417;-79
2023/10/23 00:55:12;;;;;;;25.80;24.10;;;;;;;;;;5053667;28;20514;-79
2023/10/23 00:57:39;;;;;;;26.00;24.20;;;;;;;;;;5053829;28;20462;-80
2023/10/23 01:00:07;;;;;;;24.83;23.23;;;;;;;;;;5054163;28;20450;-79
2023/10/23 01:02:40;;;;;;;26.43;24.63;;;;;;;;;;5055774;28;20452;-78
2023/10/23 01:05:08;;;;;;;24.87;23.23;;;;;;;;;;5075792;28;20941;-79
2023/10/23 01:07:36;;;;;;;25.80;24.20;;;;;;;;;;5059992;28;20453;-79
2023/10/23 01:10:04;;;;;;;25.30;23.70;;;;;;;;;;5056400;28;20413;-78
2023/10/23 01:12:31;;;;;;;25.63;23.80;;;;;;;;;;5053244;28;20459;-78
2023/10/23 01:14:58;;;;;;;25.50;23.67;;;;;;;;;;5053812;28;20456;-80
2023/10/23 01:17:25;;;;;;;26.00;24.20;;;;;;;;;;5053464;28;20448;-78
2023/10/23 01:19:53;;;;;;;26.33;24.63;;;;;;;;;;5053175;28;20419;-79
2023/10/23 01:22:20;;;;;;;25.97;24.17;;;;;;;;;;5059164;28;20452;-78
2023/10/23 01:24:49;;;;;;;25.90;24.20;;;;;;;;;;5072693;28;20417;-79
2023/10/23 01:27:17;;;;;;;26.40;24.50;;;;;;;;;;5073047;28;20477;-78
2023/10/23 01:29:44;;;;;;;25.90;24.23;;;;;;;;;;5073364;28;20450;-79
2023/10/23 01:32:11;;;;;;;26.33;24.33;;;;;;;;;;5072504;28;20480;-80
2023/10/23 01:34:39;;;;;;;24.73;23.03;;;;;;;;;;5075097;28;20455;-79
2023/10/23 01:37:06;;;;;;;25.73;23.50;;;;;;;;;;5073511;28;20847;-80
2023/10/23 01:39:33;;;;;;;27.50;25.70;;;;;;;;;;5073361;28;20418;-79
2023/10/23 01:42:00;;;;;;;28.07;25.73;;;;;;;;;;5074063;28;20460;-78
2023/10/23 01:44:28;;;;;;;25.93;24.23;;;;;;;;;;5071969;28;20525;-79
2023/10/23 01:46:55;;;;;;;25.57;23.90;;;;;;;;;;5073356;28;20481;-79
2023/10/23 01:49:22;;;;;;;24.87;23.27;;;;;;;;;;5073195;28;20428;-79
2023/10/23 01:51:50;;;;;;;25.63;23.97;;;;;;;;;;5072330;28;20850;-79
2023/10/23 01:54:17;;;;;;;25.27;23.47;;;;;;;;;;5071879;28;20574;-80
2023/10/23 01:56:44;;;;;;;26.90;25.10;;;;;;;;;;5072987;28;21035;-79
2023/10/23 01:59:11;;;;;;;24.67;23.17;;;;;;;;;;5073186;28;20453;-78
2023/10/23 02:01:40;;;;;;;24.93;23.13;;;;;;;;;;5061300;28;20441;-78
2023/10/23 02:04:08;;;;;;;26.43;24.53;;;;;;;;;;5054118;28;20493;-80
2023/10/23 02:06:35;;;;;;;26.30;24.50;;;;;;;;;;5058166;28;20549;-79
2023/10/23 02:09:03;;;;;;;25.30;23.70;;;;;;;;;;5075429;28;20454;-78
2023/10/23 02:11:30;;;;;;;26.40;24.70;;;;;;;;;;5077483;28;20552;-80
2023/10/23 02:13:57;;;;;;;25.90;24.10;;;;;;;;;;5074899;28;20485;-80
2023/10/23 02:16:25;;;;;;;24.93;23.43;;;;;;;;;;5076778;28;20849;-80
2023/10/23 02:18:53;;;;;;;26.50;24.80;;;;;;;;;;5075090;28;20456;-79
2023/10/23 02:21:20;;;;;;;25.20;23.50;;;;;;;;;;5076186;28;20427;-79
2023/10/23 02:23:47;;;;;;;24.90;23.40;;;;;;;;;;5074072;28;20444;-80
2023/10/23 02:26:14;;;;;;;26.00;24.20;;;;;;;;;;5056012;28;20453;-80
2023/10/23 02:28:41;;;;;;;27.13;25.00;;;;;;;;;;5056739;28;20446;-79
2023/10/23 02:31:08;;;;;;;27.13;25.13;;;;;;;;;;5055760;28;20913;-80
2023/10/23 02:33:36;;;;;;;25.67;24.00;;;;;;;;;;5056212;28;20413;-79
2023/10/23 02:36:05;;;;;;;26.33;24.63;;;;;;;;;;5058149;28;20695;-79
2023/10/23 02:38:32;;;;;;;26.27;24.67;;;;;;;;;;5056627;28;20494;-79
2023/10/23 02:41:00;;;;;;;26.60;24.93;;;;;;;;;;5056292;28;20447;-80
2023/10/23 02:43:27;;;;;;;25.90;24.20;;;;;;;;;;5056850;28;20454;-80
2023/10/23 02:45:54;;;;;;;27.47;25.43;;;;;;;;;;5056069;28;20456;-79
2023/10/23 02:48:21;;;;;;;25.30;23.70;;;;;;;;;;5056286;28;20486;-80
2023/10/23 02:50:54;;;;;;;26.20;24.30;;;;;;;;;;5056703;28;20459;-79
2023/10/23 02:53:22;;;;;;;25.40;23.80;;;;;;;;;;5057155;28;20464;-80
2023/10/23 02:55:49;;;;;;;26.07;24.17;;;;;;;;;;5055587;28;20461;-80
2023/10/23 02:58:17;;;;;;;27.83;25.93;;;;;;;;;;5055344;28;20513;-79
2023/10/23 03:00:44;;;;;;;25.27;23.67;;;;;;;;;;5055602;28;20490;-80
2023/10/23 03:03:15;;;;;;;27.33;25.10;;;;;;;;;;5055961;28;20450;-79
2023/10/23 03:05:42;;;;;;;27.47;25.47;;;;;;;;;;5055550;28;20473;-80
2023/10/23 03:08:09;;;;;;;26.80;25.07;;;;;;;;;;5055212;28;20482;-80
2023/10/23 03:10:38;;;;;;;27.50;25.47;;;;;;;;;;5055658;28;20965;-79
2023/10/23 03:13:05;;;;;;;28.03;25.97;;;;;;;;;;5066355;28;20433;-80
2023/10/23 03:15:32;;;;;;;28.00;25.90;;;;;;;;;;5053292;28;20831;-78
2023/10/23 03:18:03;;;;;;;27.27;25.33;;;;;;;;;;5054258;28;20453;-79
2023/10/23 03:20:30;;;;;;;27.60;25.60;;;;;;;;;;5055286;28;20413;-80
2023/10/23 03:22:57;;;;;;;28.23;26.20;;;;;;;;;;5055085;28;20458;-81
2023/10/23 03:25:25;;;;;;;29.37;27.37;;;;;;;;;;5054481;28;20513;-78
2023/10/23 03:27:53;;;;;;;27.73;25.73;;;;;;;;;;5062128;28;20448;-80
2023/10/23 03:30:20;;;;;;;30.40;27.40;;;;;;;;;;5058456;28;20870;-79
2023/10/23 03:32:47;;;;;;;29.47;26.90;;;;;;;;;;5054015;28;20462;-80
2023/10/23 03:35:17;;;;;;;28.70;26.80;;;;;;;;;;5057831;28;20449;-79
2023/10/23 03:37:44;;;;;;;29.03;26.93;;;;;;;;;;5055118;28;20442;-79
2023/10/23 03:40:13;;;;;;;29.17;26.77;;;;;;;;;;5054808;28;20445;-78
2023/10/23 03:42:40;;;;;;;29.53;27.03;;;;;;;;;;5054817;28;20417;-79
2023/10/23 03:45:08;;;;;;;29.90;27.60;;;;;;;;;;5053654;28;20417;-78
2023/10/23 03:47:35;;;;;;;31.10;28.73;;;;;;;;;;5054129;28;20470;-80
2023/10/23 03:50:03;;;;;;;31.53;28.97;;;;;;;;;;5053295;28;20872;-79
2023/10/23 03:52:30;;;;;;;30.43;28.00;;;;;;;;;;5053803;28;20456;-78
2023/10/23 03:54:57;;;;;;;30.27;27.97;;;;;;;;;;5053638;28;20503;-80
2023/10/23 03:57:24;;;;;;;31.90;28.80;;;;;;;;;;5054039;28;20690;-78
2023/10/23 03:59:51;;;;;;;29.23;26.93;;;;;;;;;;5053750;28;20472;-81
2023/10/23 04:02:19;;;;;;;27.83;25.80;;;;;;;;;;5054131;28;20424;-79
2023/10/23 04:04:46;;;;;;;29.40;27.20;;;;;;;;;;5054038;28;20447;-77
2023/10/23 04:07:13;;;;;;;30.57;28.27;;;;;;;;;;5053720;28;20957;-80
2023/10/23 04:09:40;;;;;;;29.90;27.67;;;;;;;;;;5054094;28;20441;-80
2023/10/23 04:12:08;;;;;;;28.23;26.20;;;;;;;;;;5053672;28;20961;-79
2023/10/23 04:14:35;;;;;;;31.10;28.60;;;;;;;;;;5052927;28;20429;-78
2023/10/23 04:17:02;;;;;;;30.33;28.03;;;;;;;;;;5054365;28;21029;-80
2023/10/23 04:19:31;;;;;;;28.33;25.93;;;;;;;;;;5053570;28;20454;-79
2023/10/23 04:21:59;;;;;;;29.47;27.17;;;;;;;;;;5053424;28;20468;-78
2023/10/23 04:24:26;;;;;;;29.53;27.30;;;;;;;;;;5053160;28;20450;-79
2023/10/23 04:26:53;;;;;;;32.93;30.23;;;;;;;;;;5053387;28;21343;-80
2023/10/23 04:29:20;;;;;;;29.70;27.33;;;;;;;;;;5053224;28;20859;-78
2023/10/23 04:31:47;;;;;;;29.53;27.43;;;;;;;;;;5053330;28;20814;-79
2023/10/23 04:34:14;;;;;;;30.27;28.07;;;;;;;;;;5053924;28;21005;-80
2023/10/23 04:36:43;;;;;;;32.27;29.93;;;;;;;;;;5053966;28;20557;-80
2023/10/23 04:39:10;;;;;;;32.10;29.50;;;;;;;;;;5053707;28;20813;-79
2023/10/23 04:41:37;;;;;;;31.43;29.23;;;;;;;;;;5053442;28;20425;-80
2023/10/23 04:44:04;;;;;;;30.33;28.13;;;;;;;;;;5052446;28;20425;-78
2023/10/23 04:46:31;;;;;;;30.90;28.70;;;;;;;;;;5052705;28;20453;-79
2023/10/23 04:48:58;;;;;;;29.90;27.70;;;;;;;;;;5053527;28;20429;-78
2023/10/23 04:51:25;;;;;;;30.63;27.93;;;;;;;;;;5053383;28;20543;-80
2023/10/23 04:53:53;;;;;;;30.00;27.80;;;;;;;;;;5052684;28;20446;-78
2023/10/23 04:56:20;;;;;;;27.73;25.83;;;;;;;;;;5053279;28;20464;-78
2023/10/23 04:58:47;;;;;;;27.53;25.53;;;;;;;;;;5052478;28;20932;-79
2023/10/23 05:01:17;;;;;;;31.33;28.73;;;;;;;;;;5052703;28;20636;-80
2023/10/23 05:03:44;;;;;;;31.47;28.73;;;;;;;;;;5053992;28;20474;-80
2023/10/23 05:06:12;;;;;;;30.10;27.90;;;;;;;;;;5051609;28;20433;-79
2023/10/23 05:08:39;;;;;;;30.70;28.33;;;;;;;;;;5053251;28;20476;-79
2023/10/23 05:11:07;;;;;;;29.00;26.70;;;;;;;;;;5052422;28;20846;-79
2023/10/23 05:13:35;;;;;;;28.67;26.67;;;;;;;;;;5052975;28;20425;-78
2023/10/23 05:16:05;;;;;;;31.27;28.80;;;;;;;;;;5052371;28;20461;-79
2023/10/23 05:18:32;;;;;;;30.73;28.63;;;;;;;;;;5052839;28;20556;-80
2023/10/23 05:20:59;;;;;;;31.23;28.93;;;;;;;;;;5052329;28;20425;-78
2023/10/23 05:23:26;;;;;;;31.03;28.63;;;;;;;;;;5053257;28;20834;-78
2023/10/23 05:25:54;;;;;;;29.90;27.50;;;;;;;;;;5052573;28;20458;-78
2023/10/23 05:28:22;;;;;;;31.13;28.33;;;;;;;;;;5052098;28;20482;-79
2023/10/23 05:30:51;;;;;;;30.10;27.67;;;;;;;;;;5052811;28;20428;-78
2023/10/23 05:33:20;;;;;;;27.73;25.63;;;;;;;;;;5052627;28;20454;-79
2023/10/23 05:35:47;;;;;;;30.13;27.73;;;;;;;;;;5052346;28;20474;-78
2023/10/23 05:38:14;;;;;;;31.10;28.80;;;;;;;;;;5052326;28;20791;-78
2023/10/23 05:40:41;;;;;;;29.27;27.07;;;;;;;;;;5052700;28;20481;-78
2023/10/23 05:43:08;;;;;;;30.53;28.03;;;;;;;;;;5052744;28;20421;-79
2023/10/23 05:45:38;;;;;;;30.40;28.03;;;;;;;;;;5054366;28;20473;-79
2023/10/23 05:48:05;;;;;;;29.57;27.37;;;;;;;;;;5056784;28;20909;-80
2023/10/23 05:50:33;;;;;;;28.53;26.30;;;;;;;;;;5056577;28;20454;-78
2023/10/23 05:53:00;;;;;;;29.07;26.87;;;;;;;;;;5056629;28;20497;-80
2023/10/23 05:55:27;;;;;;;29.90;27.60;;;;;;;;;;5056132;28;20464;-78
2023/10/23 05:57:55;;;;;;;32.07;29.43;;;;;;;;;;5056195;28;20448;-78
2023/10/23 06:00:22;;;;;;;33.33;30.40;;;;;;;;;;5056890;28;20407;-79
2023/10/23 06:02:50;;;;;;;39.97;36.10;;;;;;;;;;5056370;28;20466;-79
2023/10/23 06:05:17;;;;;;;37.77;34.43;;;;;;;;;;5054837;28;20516;-79
2023/10/23 06:07:46;;;;;;;35.70;32.30;;;;;;;;;;5057035;28;20452;-78
2023/10/23 06:10:13;;;;;;;37.00;33.70;;;;;;;;;;5056365;28;20439;-78
2023/10/23 06:12:40;;;;;;;41.37;37.27;;;;;;;;;;5055479;28;20453;-77
2023/10/23 06:15:09;;;;;;;35.97;32.97;;;;;;;;;;5056402;28;20421;-79
2023/10/23 06:17:36;;;;;;;35.03;31.73;;;;;;;;;;5055001;28;20482;-79
2023/10/23 06:20:05;;;;;;;33.47;30.67;;;;;;;;;;5055988;28;20458;-79
2023/10/23 06:22:33;;;;;;;35.47;32.33;;;;;;;;;;5056579;28;20433;-79
2023/10/23 06:25:00;;;;;;;36.33;33.00;;;;;;;;;;5057009;28;20950;-80
2023/10/23 06:27:27;;;;;;;35.90;32.90;;;;;;;;;;5057059;28;20456;-80
2023/10/23 06:29:54;;;;;;;35.17;31.93;;;;;;;;;;5058098;28;20458;-80
2023/10/23 06:32:21;;;;;;;35.07;31.97;;;;;;;;;;5057117;28;20422;-78
2023/10/23 06:34:51;;;;;;;34.00;31.00;;;;;;;;;;5056841;28;20462;-79
2023/10/23 06:37:19;;;;;;;34.10;31.00;;;;;;;;;;5057336;28;20494;-79
2023/10/23 06:39:47;;;;;;;32.50;29.90;;;;;;;;;;5057643;28;20513;-78
2023/10/23 06:42:14;;;;;;;31.23;28.60;;;;;;;;;;5054892;28;20435;-78
2023/10/23 06:44:41;;;;;;;34.60;31.50;;;;;;;;;;5055077;28;20425;-79
2023/10/23 06:47:10;;;;;;;34.07;30.63;;;;;;;;;;5055022;28;20474;-79
2023/10/23 06:49:38;;;;;;;33.73;30.73;;;;;;;;;;5054035;28;21029;-78
2023/10/23 06:52:05;;;;;;;36.40;32.90;;;;;;;;;;5054284;28;20943;-79
2023/10/23 06:54:33;;;;;;;37.70;34.20;;;;;;;;;;5054201;28;20790;-78
2023/10/23 06:57:00;;;;;;;36.53;32.80;;;;;;;;;;5055005;28;20476;-79
2023/10/23 06:59:28;;;;;;;32.77;29.93;;;;;;;;;;5054757;28;20455;-78
2023/10/23 07:01:55;;;;;;;37.50;34.00;;;;;;;;;;5054079;28;20509;-79
2023/10/23 07:04:23;;;;;;;37.70;34.13;;;;;;;;;;5055928;28;20453;-79
2023/10/23 07:06:50;;;;;;;36.97;33.40;;;;;;;;;;5054028;28;20462;-79
2023/10/23 07:09:18;;;;;;;37.90;34.57;;;;;;;;;;5053834;28;21137;-79
2023/10/23 07:11:48;;;;;;;35.20;31.87;;;;;;;;;;5053867;28;20510;-79
2023/10/23 07:14:15;;;;;;;32.33;29.63;;;;;;;;;;5053993;28;20795;-77
2023/10/23 07:16:42;;;;;;;34.20;31.40;;;;;;;;;;5053090;28;21080;-79
2023/10/23 07:19:11;;;;;;;35.30;32.13;;;;;;;;;;5053139;28;20458;-77
2023/10/23 07:21:38;;;;;;;36.83;33.27;;;;;;;;;;5053253;28;20465;-78
2023/10/23 07:24:05;;;;;;;37.17;33.77;;;;;;;;;;5052792;28;20414;-78
2023/10/23 07:26:32;;;;;;;35.13;31.93;;;;;;;;;;5052910;28;20877;-79
2023/10/23 07:29:01;;;;;;;35.43;32.33;;;;;;;;;;5054922;28;20454;-79
2023/10/23 07:31:28;;;;;;;36.77;33.40;;;;;;;;;;5052685;28;20474;-77
2023/10/23 07:33:55;;;;;;;37.20;33.80;;;;;;;;;;5053643;28;20446;-79
2023/10/23 07:36:22;;;;;;;37.30;33.40;;;;;;;;;;5052767;28;20527;-78
2023/10/23 07:38:49;;;;;;;38.40;34.50;;;;;;;;;;5052392;28;20454;-78
2023/10/23 07:41:16;;;;;;;36.50;33.10;;;;;;;;;;5054902;28;20813;-78
2023/10/23 07:43:43;;;;;;;37.63;34.10;;;;;;;;;;5056859;28;20412;-79
2023/10/23 07:46:12;;;;;;;36.93;33.40;;;;;;;;;;5072484;28;20423;-77
2023/10/23 07:48:39;;;;;;;38.27;34.53;;;;;;;;;;5069605;28;20461;-78
2023/10/23 07:51:07;;;;;;;40.27;36.43;;;;;;;;;;5053509;28;20449;-78
2023/10/23 07:53:35;;;;;;;40.80;37.00;;;;;;;;;;5052659;28;20524;-79
2023/10/23 07:56:04;;;;;;;41.87;37.50;;;;;;;;;;5066896;28;20600;-78
2023/10/23 07:58:31;;;;;;;40.90;36.80;;;;;;;;;;5054977;28;20835;-77
2023/10/23 08:01:05;;;;;;;44.03;39.00;;;;;;;;;;5053248;28;20474;-80
2023/10/23 08:03:39;;;;;;;41.50;37.40;;;;;;;;;;5053195;28;20468;-80
2023/10/23 08:06:07;;;;;;;42.63;38.07;;;;;;;;;;5059128;28;20486;-80
2023/10/23 08:08:35;;;;;;;43.73;39.10;;;;;;;;;;5057241;28;20466;-79
2023/10/23 08:11:04;;;;;;;43.20;38.83;;;;;;;;;;5052190;28;20433;-75
2023/10/23 08:13:31;;;;;;;42.47;38.47;;;;;;;;;;5050440;28;20481;-76
2023/10/23 08:15:58;;;;;;;44.43;39.73;;;;;;;;;;5049568;28;20856;-76
2023/10/23 08:18:25;;;;;;;45.63;41.13;;;;;;;;;;5058068;28;20470;-81
2023/10/23 08:20:53;;;;;;;49.10;41.97;;;;;;;;;;5057393;28;20454;-80
2023/10/23 08:23:20;;;;;;;43.87;39.27;;;;;;;;;;5064069;28;20450;-86
2023/10/23 08:25:47;;;;;;;42.67;38.10;;;;;;;;;;5067565;28;21237;-80
2023/10/23 08:28:14;;;;;;;47.87;40.40;;;;;;;;;;5054364;28;20474;-76
2023/10/23 08:30:41;;;;;;;45.97;39.37;;;;;;;;;;5052242;28;20812;-77
2023/10/23 08:33:09;;;;;;;43.67;38.63;;;;;;;;;;5050996;28;20450;-77
2023/10/23 08:35:36;;;;;;;44.73;39.93;;;;;;;;;;5067766;28;20462;-77
2023/10/23 08:38:04;;;;;;;46.13;41.23;;;;;;;;;;5070716;28;20516;-76
2023/10/23 08:40:32;;;;;;;47.27;39.37;;;;;;;;;;5070974;28;20834;-78
2023/10/23 08:42:59;;;;;;;42.67;38.20;;;;;;;;;;5070536;28;20445;-76
2023/10/23 08:45:26;;;;;;;43.43;37.20;;;;;;;;;;5070344;28;20453;-77
2023/10/23 08:47:54;;;;;;;42.30;38.00;;;;;;;;;;5070970;28;20443;-76
2023/10/23 08:50:21;;;;;;;38.77;35.07;;;;;;;;;;5070607;28;20813;-76
2023/10/23 08:52:51;;;;;;;39.53;35.63;;;;;;;;;;5071894;28;20436;-80
2023/10/23 08:55:20;;;;;;;39.33;35.40;;;;;;;;;;5070354;28;20445;-76
2023/10/23 08:57:51;;;;;;;39.53;35.67;;;;;;;;;;5055338;28;21182;-77
2023/10/23 09:00:18;;;;;;;39.43;35.50;;;;;;;;;;5052746;28;20417;-77
2023/10/23 09:02:45;;;;;;;38.23;34.87;;;;;;;;;;5051362;28;20425;-77
2023/10/23 09:05:12;;;;;;;37.63;33.93;;;;;;;;;;5050078;28;20459;-77
2023/10/23 09:07:40;;;;;;;38.07;34.57;;;;;;;;;;5051835;28;20478;-80
2023/10/23 09:10:07;;;;;;;38.63;34.90;;;;;;;;;;5068197;28;20908;-76
2023/10/23 09:12:36;;;;;;;37.90;34.20;;;;;;;;;;5070076;28;20945;-76
2023/10/23 09:15:14;;;;;;;38.10;34.50;;;;;;;;;;5068996;28;20427;-76
2023/10/23 09:17:41;;;;;;;37.23;34.00;;;;;;;;;;5070856;28;20492;-77
2023/10/23 09:20:26;;;;;;;34.63;31.57;;;;;;;;;;5077126;28;20512;-76
2023/10/23 09:22:53;;;;;;;33.33;30.60;;;;;;;;;;5077037;28;20452;-80
2023/10/23 09:25:21;;;;;;;33.23;30.20;;;;;;;;;;5076439;28;20465;-75
2023/10/23 09:27:49;;;;;;;34.00;31.03;;;;;;;;;;5076626;28;20444;-75
2023/10/23 09:30:21;;;;;;;32.10;29.40;;;;;;;;;;5060163;28;20443;-76
2023/10/23 09:32:50;;;;;;;31.77;29.17;;;;;;;;;;5056729;28;20440;-76
2023/10/23 09:35:18;;;;;;;34.37;31.37;;;;;;;;;;5057308;28;20492;-83
2023/10/23 09:37:45;;;;;;;30.40;27.70;;;;;;;;;;5060137;28;20492;-80
2023/10/23 09:40:17;;;;;;;31.57;29.07;;;;;;;;;;5061892;28;20470;-79
2023/10/23 09:42:45;;;;;;;28.93;26.50;;;;;;;;;;5062386;28;20523;-80
2023/10/23 09:45:13;;;;;;;30.33;27.90;;;;;;;;;;5061716;28;20428;-80
2023/10/23 09:47:41;;;;;;;29.37;26.87;;;;;;;;;;5062034;28;20445;-79
2023/10/23 09:50:08;;;;;;;28.23;26.03;;;;;;;;;;5062474;28;20429;-80
2023/10/23 09:52:36;;;;;;;26.00;24.10;;;;;;;;;;5062124;28;20454;-81
2023/10/23 09:55:04;;;;;;;28.37;26.43;;;;;;;;;;5058554;28;20432;-78
2023/10/23 09:57:34;;;;;;;27.63;25.63;;;;;;;;;;5059967;28;20898;-79
2023/10/23 10:00:04;;;;;;;27.93;25.70;;;;;;;;;;5060301;28;20409;-78
2023/10/23 10:02:36;;;;;;;28.53;26.40;;;;;;;;;;5059338;28;20543;-77
2023/10/23 10:05:04;;;;;;;28.70;26.40;;;;;;;;;;5055447;28;20545;-77
2023/10/23 10:07:33;;;;;;;29.53;27.10;;;;;;;;;;5056223;28;20553;-78
2023/10/23 10:10:00;;;;;;;30.13;27.53;;;;;;;;;;5058641;28;20421;-76
2023/10/23 10:12:27;;;;;;;26.80;24.90;;;;;;;;;;5057920;28;20465;-78
2023/10/23 10:14:55;;;;;;;27.00;25.00;;;;;;;;;;5058738;28;20454;-77
2023/10/23 10:17:22;;;;;;;27.17;25.20;;;;;;;;;;5058889;28;20469;-77
2023/10/23 10:19:51;;;;;;;26.87;24.97;;;;;;;;;;5058765;28;20516;-77
2023/10/23 10:22:21;;;;;;;26.00;24.30;;;;;;;;;;5058608;28;20426;-77
2023/10/23 10:24:48;;;;;;;26.57;24.40;;;;;;;;;;5070170;28;20483;-79
2023/10/23 10:27:16;;;;;;;25.80;24.20;;;;;;;;;;5078252;28;20482;-77
2023/10/23 10:29:43;;;;;;;25.70;24.07;;;;;;;;;;5076237;28;20458;-78
2023/10/23 10:32:10;;;;;;;27.03;25.07;;;;;;;;;;5069283;28;20521;-77
2023/10/23 10:34:39;;;;;;;24.70;23.00;;;;;;;;;;5066947;28;20462;-77
2023/10/23 10:37:08;;;;;;;25.30;23.57;;;;;;;;;;5052856;28;20523;-78
2023/10/23 10:39:59;;;;;;;25.80;24.20;;;;;;;;;;5054114;28;20486;-77
2023/10/23 10:42:26;;;;;;;24.70;23.20;;;;;;;;;;5038440;28;20974;-77
2023/10/23 10:44:53;;;;;;;25.83;23.83;;;;;;;;;;5052843;28;20951;-77
2023/10/23 10:47:21;;;;;;;25.17;23.57;;;;;;;;;;5053971;28;20447;-77
2023/10/23 10:49:48;;;;;;;26.20;24.13;;;;;;;;;;5053613;28;20549;-76
2023/10/23 10:52:30;;;;;;;24.83;23.17;;;;;;;;;;5054749;28;21229;-77
2023/10/23 10:54:57;;;;;;;25.23;23.53;;;;;;;;;;5057528;28;21046;-83
2023/10/23 10:57:24;;;;;;;26.57;24.60;;;;;;;;;;5054340;28;20497;-78
2023/10/23 10:59:55;;;;;;;25.03;23.43;;;;;;;;;;5058346;28;20457;-76
2023/10/23 11:02:23;;;;;;;26.37;24.57;;;;;;;;;;5051706;28;20807;-77
2023/10/23 11:04:50;;;;;;;24.90;23.30;;;;;;;;;;5050795;28;21150;-76
2023/10/23 11:07:22;;;;;;;24.43;22.80;;;;;;;;;;5056281;28;20455;-79
2023/10/23 11:09:50;;;;;;;23.77;22.37;;;;;;;;;;5056186;28;20467;-79
2023/10/23 11:12:18;;;;;;;23.73;22.30;;;;;;;;;;5068518;28;20504;-80
2023/10/23 11:14:45;;;;;;;25.43;23.83;;;;;;;;;;5060005;28;20508;-80
2023/10/23 11:17:13;;;;;;;24.67;22.83;;;;;;;;;;5055832;28;21062;-79
2023/10/23 11:19:41;;;;;;;24.93;23.40;;;;;;;;;;5055699;28;20482;-79
2023/10/23 11:22:08;;;;;;;24.30;22.60;;;;;;;;;;5056436;28;20516;-79
2023/10/23 11:24:35;;;;;;;23.20;21.60;;;;;;;;;;5055968;28;21100;-80
2023/10/23 11:27:05;;;;;;;24.13;22.63;;;;;;;;;;5056462;28;20465;-80
2023/10/23 11:29:38;;;;;;;25.40;23.70;;;;;;;;;;5055930;28;20962;-79
2023/10/23 11:32:06;;;;;;;25.40;23.70;;;;;;;;;;5056512;28;20458;-81
2023/10/23 11:34:33;;;;;;;24.57;22.87;;;;;;;;;;5055820;28;20452;-80
2023/10/23 11:37:01;;;;;;;25.43;23.73;;;;;;;;;;5056282;28;21080;-79
2023/10/23 11:39:39;;;;;;;25.20;23.70;;;;;;;;;;5056116;28;20457;-79
2023/10/23 11:42:07;;;;;;;23.80;22.23;;;;;;;;;;5055500;28;20466;-80
2023/10/23 11:44:35;;;;;;;24.00;22.30;;;;;;;;;;5056014;28;20440;-80
2023/10/23 11:47:04;;;;;;;25.00;23.40;;;;;;;;;;5056045;28;20441;-81
2023/10/23 11:49:31;;;;;;;23.80;22.43;;;;;;;;;;5056511;28;20447;-80
2023/10/23 11:51:58;;;;;;;25.47;23.53;;;;;;;;;;5057184;28;20459;-79
2023/10/23 11:54:26;;;;;;;25.10;23.50;;;;;;;;;;5055073;28;20517;-80
2023/10/23 11:56:56;;;;;;;24.63;22.93;;;;;;;;;;5055265;28;21000;-80
2023/10/23 11:59:25;;;;;;;23.87;22.37;;;;;;;;;;5056108;28;20454;-78
2023/10/23 12:01:54;;;;;;;26.17;23.60;;;;;;;;;;5055440;28;21179;-80
2023/10/23 12:04:21;;;;;;;24.20;22.60;;;;;;;;;;5054401;28;20462;-79
2023/10/23 12:06:48;;;;;;;24.63;22.93;;;;;;;;;;5054955;28;20476;-80
2023/10/23 12:09:15;;;;;;;24.07;22.67;;;;;;;;;;5055665;28;20924;-79
2023/10/23 12:11:42;;;;;;;23.60;22.00;;;;;;;;;;5056080;28;20466;-79
2023/10/23 12:14:09;;;;;;;24.03;22.47;;;;;;;;;;5055101;28;20935;-81
2023/10/23 12:16:39;;;;;;;24.07;22.60;;;;;;;;;;5055740;28;20502;-79
2023/10/23 12:19:07;;;;;;;25.27;23.53;;;;;;;;;;5062830;28;20497;-80
2023/10/23 12:21:34;;;;;;;24.97;23.30;;;;;;;;;;5076679;28;20542;-80
2023/10/23 12:24:01;;;;;;;25.50;23.70;;;;;;;;;;5076296;28;20515;-79
2023/10/23 12:26:28;;;;;;;26.63;24.53;;;;;;;;;;5067543;28;21155;-80
2023/10/23 12:28:55;;;;;;;25.50;23.80;;;;;;;;;;5055778;28;20475;-81
2023/10/23 12:31:22;;;;;;;26.07;24.10;;;;;;;;;;5055239;28;20462;-80
2023/10/23 12:33:53;;;;;;;24.57;22.97;;;;;;;;;;5054353;28;20470;-80
2023/10/23 12:36:20;;;;;;;26.17;24.17;;;;;;;;;;5055130;28;20451;-79
2023/10/23 12:38:47;;;;;;;26.33;24.70;;;;;;;;;;5056120;28;20478;-79
2023/10/23 12:41:14;;;;;;;27.00;25.10;;;;;;;;;;5056900;28;20892;-80
2023/10/23 12:43:41;;;;;;;25.63;23.83;;;;;;;;;;5054564;28;20485;-80
2023/10/23 12:46:09;;;;;;;26.60;24.60;;;;;;;;;;5055441;28;20454;-79
2023/10/23 12:48:38;;;;;;;25.80;24.07;;;;;;;;;;5057306;28;20474;-78
2023/10/23 12:51:06;;;;;;;27.80;25.77;;;;;;;;;;5052114;28;20529;-79
2023/10/23 12:53:33;;;;;;;26.47;24.67;;;;;;;;;;5051916;28;20453;-78
2023/10/23 12:56:00;;;;;;;25.70;24.07;;;;;;;;;;5051042;28;20471;-79
2023/10/23 12:58:27;;;;;;;25.43;23.73;;;;;;;;;;5052133;28;21024;-79
2023/10/23 13:00:54;;;;;;;25.63;23.83;;;;;;;;;;5055106;28;20484;-79
2023/10/23 13:03:21;;;;;;;25.60;23.70;;;;;;;;;;5057339;28;20457;-79
2023/10/23 13:05:50;;;;;;;25.30;23.60;;;;;;;;;;5052482;28;20457;-80
2023/10/23 13:08:19;;;;;;;22.97;21.57;;;;;;;;;;5052764;28;20471;-78
2023/10/23 13:10:46;;;;;;;24.10;22.50;;;;;;;;;;5052594;28;20472;-78
2023/10/23 13:13:13;;;;;;;22.90;21.60;;;;;;;;;;5055351;28;20458;-80
2023/10/23 13:15:41;;;;;;;23.20;21.70;;;;;;;;;;5055886;28;20852;-81
2023/10/23 13:18:08;;;;;;;21.50;20.20;;;;;;;;;;5056084;28;20472;-81
2023/10/23 13:20:35;;;;;;;22.17;20.87;;;;;;;;;;5056286;28;20449;-81
2023/10/23 13:23:02;;;;;;;21.37;20.17;;;;;;;;;;5056723;28;20490;-80
2023/10/23 13:25:31;;;;;;;20.43;19.23;;;;;;;;;;5055768;28;20433;-81
2023/10/23 13:27:58;;;;;;;20.97;19.87;;;;;;;;;;5056159;28;20437;-81
2023/10/23 13:30:25;;;;;;;21.23;20.03;;;;;;;;;;5056255;28;20402;-80
2023/10/23 13:32:52;;;;;;;20.10;19.00;;;;;;;;;;5056498;28;20450;-80
2023/10/23 13:35:19;;;;;;;21.63;20.33;;;;;;;;;;5061321;28;20428;-81
2023/10/23 13:37:46;;;;;;;20.80;19.60;;;;;;;;;;5076511;28;20497;-80
2023/10/23 13:40:14;;;;;;;20.70;19.40;;;;;;;;;;5077291;28;20450;-80
2023/10/23 13:42:43;;;;;;;21.03;19.67;;;;;;;;;;5076655;28;20487;-81
2023/10/23 13:45:10;;;;;;;20.50;19.40;;;;;;;;;;5076578;28;20442;-80
2023/10/23 13:47:37;;;;;;;20.43;19.17;;;;;;;;;;5076773;28;20462;-80
2023/10/23 13:50:04;;;;;;;21.20;20.00;;;;;;;;;;5071587;28;20469;-77
2023/10/23 13:52:32;;;;;;;21.27;20.07;;;;;;;;;;5076553;28;20450;-80
2023/10/23 13:54:59;;;;;;;19.97;18.73;;;;;;;;;;5076877;28;20991;-79
2023/10/23 13:57:26;;;;;;;21.83;20.53;;;;;;;;;;5076006;28;20846;-80
2023/10/23 13:59:55;;;;;;;21.20;20.00;;;;;;;;;;5062131;28;20458;-81
2023/10/23 14:02:22;;;;;;;21.20;19.90;;;;;;;;;;5057441;28;20461;-81
2023/10/23 14:04:49;;;;;;;20.33;19.23;;;;;;;;;;5056626;28;20470;-80
2023/10/23 14:07:16;;;;;;;20.37;19.17;;;;;;;;;;5059654;28;20470;-81
2023/10/23 14:09:43;;;;;;;19.93;18.73;;;;;;;;;;5059110;28;20449;-80
2023/10/23 14:12:11;;;;;;;20.07;18.87;;;;;;;;;;5059136;28;20455;-81
2023/10/23 14:14:38;;;;;;;20.30;19.20;;;;;;;;;;5057968;28;20447;-80
2023/10/23 14:17:07;;;;;;;19.93;18.83;;;;;;;;;;5058523;28;20470;-81
2023/10/23 14:19:34;;;;;;;21.20;20.00;;;;;;;;;;5058562;28;20897;-80